Latest Coastal Weather Observations for Cape Sorell

IDT60701

Issued at 11:32 am EDT Tuesday 2 March 2021 (issued every 10 minutes, with the page automatically refreshed every 10 minutes)

About coastal observations | Map of coastal stations | Coastal observations for TAS | Marine services | Other Formats
Station Details ID: 097000 Name: CAPE SORELL Lat: -42.20 Lon: 145.17 Height: 19.3 m
Data from the previous 72 hours. | See also: Recent months at Cape Sorell
Date/Time
EDT
Wind Sea
Height
m
Swell Vis
km
Cloud Weather Temp
°C
Press
MSL
hPa
Rain since
9am
mm
Dir  Spd
kts
Gust
kts
Height
m
Period
s
Dir
02/11:30am SSW 25 30 - - - - - - - 12.6 1017.0 0.0
02/11:00am SSW 24 28 - - - - - - - 12.6 1016.8 0.0
02/10:30am SSW 22 27 - - - - - - - 13.8 1016.3 0.0
02/10:00am S 20 26 - - - - - - - 12.3 1016.5 0.0
02/09:34am SSW 23 33 - - - - - - - 12.5 1016.0 0.0
02/09:30am SSW 23 29 - - - - - - - 12.4 1016.2 0.0
02/09:00am S 22 27 - - - - - - - 11.9 1016.0 2.4
02/08:30am SSW 24 30 - - - - - - - 11.1 1015.7 2.4
02/08:00am SSW 24 28 - - - - - - - 12.2 1015.3 2.4
02/07:30am SSW 22 26 - - - - - - - 11.7 1015.2 2.4
02/07:00am SSW 25 36 - - - - - - - 11.6 1014.7 2.4
02/06:47am SSW 23 33 - - - - - - - 11.4 1014.8 2.4
02/06:30am SSW 29 36 - - - - - - - 11.2 1014.5 2.4
02/06:00am SSW 27 32 - - - - - - - 12.1 1014.1 2.4
02/05:30am SSW 26 31 - - - - - - - 12.0 1013.9 2.4
02/05:00am SSW 26 30 - - - - - - - 12.3 1013.6 2.4
02/04:30am SSW 27 33 - - - - - - - 12.2 1013.2 2.4
02/04:00am SSW 28 32 - - - - - - - 12.1 1013.0 2.4
02/03:30am SSW 26 32 - - - - - - - 12.3 1013.0 2.4
02/03:00am SSW 28 33 - - - - - - - 12.4 1012.9 2.4
02/02:30am SSW 28 34 - - - - - - - 12.2 1013.0 2.4
02/02:00am SSW 30 35 - - - - - - - 12.3 1012.8 2.4
02/01:30am SSW 29 36 - - - - - - - 12.1 1012.8 2.4
02/01:00am SSW 31 39 - - - - - - - 12.2 1012.3 2.4
02/12:30am SSW 30 39 - - - - - - - 12.1 1012.3 2.4
02/12:00am SSW 31 37 - - - - - - - 12.8 1011.9 2.4
 
Date/Time
EDT
Wind Sea
Height
m
Swell Vis
km
Cloud Weather Temp
°C
Press
MSL
hPa
Rain since
9am
mm
Dir  Spd
kts
Gust
kts
Height
m
Period
s
Dir
01/11:30pm SW 31 39 - - - - - - - 11.9 1011.5 2.4
01/11:00pm SSW 31 38 - - - - - - - 11.7 1011.3 2.4
01/10:30pm SSW 35 41 - - - - - - - 12.1 1010.8 2.4
01/10:00pm SSW 36 45 - - - - - - - 11.6 1010.5 2.4
01/09:30pm SW 36 44 - - - - - - - 11.4 1010.1 2.4
01/09:00pm SW 37 45 - - - - - - Recent precip. 11.5 1009.6 2.4
01/08:44pm SW 37 47 - - - - - - - 12.0 1009.0 2.4
01/08:30pm SW 36 44 - - - - - - - 11.5 1009.1 2.4
01/08:00pm SW 33 44 - - - - - - - 11.7 1008.4 2.2
01/07:53pm SW 37 47 - - - - - - - 11.7 1008.7 2.2
01/07:30pm SW 36 45 - - - - - - - 12.4 1008.2 2.0
01/07:00pm SW 36 43 - - - - - - - 12.4 1007.5 2.0
01/06:30pm SW 36 43 - - - - - - - 12.6 1007.1 2.0
01/06:00pm SW 38 44 - - - - - - - 12.5 1006.6 2.0
01/05:30pm SW 37 44 - - - - - - - 12.7 1006.5 2.0
01/05:11pm SSW 32 41 - - - - - - - 11.6 1005.9 2.0
01/05:05pm SSW 25 37 - - - - - - - 12.4 1006.2 2.0
01/05:00pm SSW 27 37 - - - - - - - 12.0 1006.5 2.0
01/04:56pm SSW 31 38 - - - - - - - 11.3 1006.6 1.8
01/04:37pm SW 40 51 - - - - - - - 12.5 1005.7 1.0
01/04:30pm SW 43 51 - - - - - - - 12.9 1005.5 1.0
01/04:10pm WSW 37 52 - - - - - - - 12.5 1004.9 1.0
01/04:02pm WSW 29 41 - - - - - - - 14.3 1005.6 1.0
01/04:00pm WSW 28 32 - - - - - - - 14.2 1005.9 1.0
01/03:30pm WSW 28 37 - - - - - - - 14.3 1006.1 1.0
01/03:28pm WSW 26 37 - - - - - - - 13.6 1005.9 1.0
01/03:00pm WSW 24 28 - - - - - - - 13.1 1006.2 1.0
01/02:30pm WSW 28 36 - - - - - - - 13.0 1005.9 1.0
01/02:27pm WSW 26 36 - - - - - - - 13.5 1005.8 1.0
01/02:00pm WSW 27 33 - - - - - - - 12.7 1006.1 1.0
01/01:30pm WSW 30 36 - - - - - - - 13.1 1005.8 1.0
01/01:00pm WSW 31 35 - - - - - - - 13.3 1005.6 0.8
01/12:49pm WSW 28 36 - - - - - - - 12.8 1005.3 0.8
01/12:30pm W 23 33 - - - - - - - 14.0 1005.9 0.4
01/12:19pm WNW 17 27 - - - - - - - 15.6 1006.1 0.4
01/12:00pm WNW 18 24 - - - - - - Recent precip. 15.2 1006.3 0.4
01/11:30am NW 13 19 - - - - - - - 16.4 1006.7 0.0
01/11:00am NW 12 17 - - - - - - - 17.8 1007.0 0.0
01/10:30am NW 9 13 - - - - - - - 16.0 1007.3 0.0
01/10:00am NW 9 12 - - - - - - - 16.2 1007.5 0.0
01/09:30am WNW 8 10 - - - - - - - 16.0 1007.6 0.0
01/09:00am WNW 6 8 - - - - - - - 15.6 1007.6 0.0
01/08:30am W 6 7 - - - - - - - 15.0 1007.6 0.0
01/08:00am WSW 10 13 - - - - - - - 14.9 1007.6 0.0
01/07:30am WSW 9 11 - - - - - - - 14.7 1007.6 0.0
01/07:00am WSW 8 10 - - - - - - - 14.7 1007.6 0.0
01/06:30am WSW 10 11 - - - - - - - 14.9 1007.7 0.0
01/06:00am WSW 6 7 - - - - - - - 15.0 1007.5 0.0
01/05:30am SW 5 6 - - - - - - - 15.1 1007.6 0.0
01/05:00am WSW 7 8 - - - - - - - 15.2 1007.8 0.0
01/04:30am SW 4 5 - - - - - - - 15.1 1007.9 0.0
01/04:00am SSW 4 5 - - - - - - - 15.1 1007.9 0.0
01/03:30am SSW 5 6 - - - - - - - 15.1 1008.4 0.0
01/03:00am S 4 6 - - - - - - - 15.2 1008.3 0.0
01/02:30am SSW 6 7 - - - - - - - 15.1 1008.6 0.0
01/02:00am S 5 6 - - - - - - - 15.3 1008.9 0.0
01/01:30am S 7 8 - - - - - - - 15.3 1008.9 0.0
01/01:00am S 6 8 - - - - - - - 15.5 1009.1 0.0
01/12:30am S 6 8 - - - - - - - 15.8 1009.5 0.0
01/12:00am SSW 8 9 - - - - - - - 15.8 1009.8 0.0
 
Date/Time
EDT
Wind Sea
Height
m
Swell Vis
km
Cloud Weather Temp
°C
Press
MSL
hPa
Rain since
9am
mm
Dir  Spd
kts
Gust
kts
Height
m
Period
s
Dir
28/11:30pm SSW 8 10 - - - - - - - 15.8 1009.9 0.0
28/11:00pm S 5 6 - - - - - - - 15.8 1010.3 0.0
28/10:30pm S 6 8 - - - - - - - 15.8 1010.4 0.0
28/10:00pm S 8 10 - - - - - - - 15.9 1010.4 0.0
28/09:30pm S 8 11 - - - - - - - 16.0 1010.4 0.0
28/09:00pm S 9 10 - - - - - - - 15.9 1010.5 0.0
28/08:30pm S 9 11 - - - - - - - 16.0 1010.5 0.0
28/08:00pm S 8 10 - - - - - - - 15.9 1010.3 0.0
28/07:30pm S 9 11 - - - - - - - 16.2 1010.2 0.0
28/07:00pm S 8 10 - - - - - - - 15.9 1010.1 0.0
28/06:30pm S 10 11 - - - - - - - 16.4 1010.2 0.0
28/06:00pm S 10 12 - - - - - - - 16.7 1010.2 0.0
28/05:30pm S 11 13 - - - - - - - 16.5 1010.4 0.0
28/05:00pm SSW 13 15 - - - - - - - 16.7 1010.5 0.0
28/04:30pm SSW 14 16 - - - - - - - 17.2 1010.6 0.0
28/04:00pm S 11 14 - - - - - - - 17.3 1010.9 0.0
28/03:30pm SSW 13 15 - - - - - - - 17.4 1011.2 0.0
28/03:00pm S 12 14 - - - - - - - 18.2 1011.3 0.0
28/02:30pm SSW 11 12 - - - - - - - 18.9 1011.8 0.0
28/02:00pm SSW 7 8 - - - - - - - 19.4 1012.2 0.0
28/01:30pm SSW 7 8 - - - - - - - 19.7 1012.6 0.0
28/01:00pm SW 6 7 - - - - - - - 19.3 1013.0 0.0
28/12:30pm SW 4 4 - - - - - - - 18.5 1013.3 0.0
28/12:00pm SW 3 4 - - - - - - - 19.0 1013.5 0.0
28/11:30am SW 3 4 - - - - - - - 17.6 1013.7 0.0
28/11:00am SW 4 4 - - - - - - - 17.7 1013.7 0.0
28/10:30am SW 2 3 - - - - - - - 17.1 1013.6 0.0
28/10:00am NNE 2 2 - - - - - - - 17.1 1013.6 0.0
28/09:30am NNE 2 3 - - - - - - - 16.2 1013.6 0.0
28/09:00am ENE 2 3 - - - - - - - 16.6 1013.4 0.0
28/08:30am E 3 5 - - - - - - - 15.6 1013.0 0.0
28/08:00am E 3 4 - - - - - - - 14.4 1013.1 0.0
28/07:30am ENE 5 6 - - - - - - - 12.9 1013.1 0.0
28/07:00am E 5 6 - - - - - - - 12.7 1012.8 0.0
28/06:30am E 4 4 - - - - - - - 12.8 1012.7 0.0
28/06:00am E 2 4 - - - - - - - 13.3 1012.6 0.0
28/05:30am SE 1 3 - - - - - - - 13.8 1012.7 0.0
28/05:00am SW 1 3 - - - - - - - 14.4 1012.8 0.0
28/04:30am WSW 1 2 - - - - - - - 14.3 1012.9 0.0
28/04:00am WSW 2 3 - - - - - - - 14.3 1013.1 0.0
28/03:30am SW 2 3 - - - - - - - 14.3 1012.9 0.0
28/03:00am SW 3 4 - - - - - - - 14.2 1013.1 0.0
28/02:30am SSW 3 4 - - - - - - - 14.6 1013.4 0.0
28/02:00am SSW 4 5 - - - - - - - 14.6 1013.6 0.0
28/01:30am SSW 6 7 - - - - - - - 14.6 1013.6 0.0
28/01:00am SSE 3 5 - - - - - - - 14.0 1013.5 0.0
28/12:30am S 6 7 - - - - - - - 14.8 1013.5 0.0
28/12:00am SSE 3 5 - - - - - - - 14.2 1013.3 0.0
 
Date/Time
EDT
Wind Sea
Height
m
Swell Vis
km
Cloud Weather Temp
°C
Press
MSL
hPa
Rain since
9am
mm
Dir  Spd
kts
Gust
kts
Height
m
Period
s
Dir
27/11:30pm SSE 8 11 - - - - - - - 14.3 1013.2 0.0
27/11:00pm SW 4 5 - - - - - - - 14.7 1014.0 0.0
27/10:30pm WSW 3 5 - - - - - - - 14.7 1014.2 0.0
27/10:00pm S 1 2 - - - - - - - 15.0 1014.2 0.0
27/09:30pm CALM 0 1 - - - - - - - 14.7 1014.3 0.0
27/09:00pm E 1 1 - - - - - - - 14.5 1014.5 0.0
27/08:30pm ESE 2 3 - - - - - - - 14.5 1014.4 0.0
27/08:00pm ENE 1 2 - - - - - - - 15.0 1014.4 0.0
27/07:30pm S 5 7 - - - - - - - 15.6 1014.1 0.0
27/07:00pm SSW 1 3 - - - - - - - 15.9 1014.2 0.0
27/06:30pm SSW 8 9 - - - - - - - 16.6 1013.9 0.0
27/06:00pm SSW 7 8 - - - - - - - 17.0 1013.9 0.0
27/05:30pm SSW 9 10 - - - - - - - 17.6 1013.7 0.0
27/05:00pm SSW 9 11 - - - - - - - 18.4 1013.5 0.0
27/04:30pm SW 9 10 - - - - - - - 18.6 1013.4 0.0
27/04:00pm SW 8 9 - - - - - - - 18.2 1013.6 0.0
27/03:30pm SW 7 8 - - - - - - - 18.7 1013.9 0.0
27/03:00pm SW 6 8 - - - - - - - 18.8 1014.1 0.0
27/02:30pm SW 6 7 - - - - - - - 18.9 1014.3 0.0
27/02:00pm SW 5 6 - - - - - - - 17.4 1014.2 0.0
27/01:30pm SW 4 5 - - - - - - - 17.1 1014.1 0.0
27/01:00pm WSW 3 4 - - - - - - - 17.0 1014.3 0.0
27/12:30pm W 2 5 - - - - - - - 17.8 1014.5 0.0
27/12:00pm N 2 4 - - - - - - - 16.5 1014.6 0.0

Other formats

Comma delimited format used in spreadsheet applications
http://www.bom.gov.au/fwo/IDT60701/IDT60701.94974.axf

JavaScript Object Notation format (JSON) in row-major order
http://www.bom.gov.au/fwo/IDT60701/IDT60701.94974.json

Data quality

Most of these data are generated automatically and are frequently updated. Quality checks on data are not normally performed. It is possible for incorrect values to appear. Refer to information at About Latest Weather Observations and please check the disclaimer before using these data.